GLO7281 SABE-SBFL
Flight info
| Callsign | GLO7281 |
|---|---|
| Flight time | N/A |
| Altitude | 37000 |
| Route | DORVO8 DORVO UN857 ITBEB UM540 DADMO |
| Aircraft | B738/M-SDE2E3FGHIRWXY/LB1 |
Departure
| Time | N/A |
|---|---|
| Airport | Aeroparque Jorge Newbery (SABE) |
Arrival
| Time | 2026-04-27 10:07 |
|---|---|
| Airport | Hercílio Luz International Airport (SBFL) |
| Time | Latitude | Longitude | Altitude | Speed | Heading |
|---|---|---|---|---|---|
| 2026-04-27 08:39 | -34.42144 | -57.78632 | 16870 ft | 428 kts | 82° |
| 2026-04-27 08:39 | -34.41538 | -57.75072 | 17361 ft | 436 kts | 82° |
| 2026-04-27 08:40 | -34.40921 | -57.71448 | 17857 ft | 443 kts | 82° |
| 2026-04-27 08:40 | -34.40291 | -57.67761 | 18339 ft | 451 kts | 82° |
| 2026-04-27 08:40 | -34.39651 | -57.64022 | 18822 ft | 456 kts | 81° |
| 2026-04-27 08:40 | -34.39003 | -57.60249 | 19334 ft | 460 kts | 81° |
| 2026-04-27 08:41 | -34.38349 | -57.56451 | 19899 ft | 462 kts | 81° |
| 2026-04-27 08:41 | -34.37691 | -57.52633 | 20445 ft | 464 kts | 81° |
| 2026-04-27 08:41 | -34.37030 | -57.48801 | 20963 ft | 467 kts | 81° |
| 2026-04-27 08:41 | -34.36362 | -57.44935 | 21467 ft | 471 kts | 80° |
| 2026-04-27 08:42 | -34.35688 | -57.41043 | 21967 ft | 474 kts | 80° |
| 2026-04-27 08:42 | -34.35008 | -57.37124 | 22457 ft | 477 kts | 79° |
| 2026-04-27 08:42 | -34.34332 | -57.33236 | 22916 ft | 481 kts | 79° |
| 2026-04-27 08:42 | -34.33640 | -57.29262 | 23397 ft | 484 kts | 79° |
| 2026-04-27 08:43 | -34.32943 | -57.25268 | 23831 ft | 487 kts | 79° |
| 2026-04-27 08:43 | -34.32240 | -57.21249 | 24231 ft | 489 kts | 79° |
| 2026-04-27 08:43 | -34.31534 | -57.17217 | 24629 ft | 492 kts | 78° |
| 2026-04-27 08:43 | -34.30820 | -57.13153 | 25016 ft | 495 kts | 78° |
| 2026-04-27 08:44 | -34.30103 | -57.09074 | 25395 ft | 498 kts | 78° |
| 2026-04-27 08:44 | -34.29379 | -57.04967 | 25738 ft | 501 kts | 78° |
| 2026-04-27 08:44 | -34.28650 | -57.00836 | 26108 ft | 503 kts | 78° |
| 2026-04-27 08:44 | -34.27917 | -56.96689 | 26491 ft | 506 kts | 78° |
| 2026-04-27 08:45 | -34.27177 | -56.92525 | 26852 ft | 508 kts | 77° |
| 2026-04-27 08:45 | -34.26168 | -56.88428 | 27177 ft | 510 kts | 66° |
| 2026-04-27 08:45 | -34.24655 | -56.84556 | 27528 ft | 509 kts | 57° |
| 2026-04-27 08:45 | -34.22731 | -56.80995 | 27870 ft | 505 kts | 46° |
| 2026-04-27 08:46 | -34.20473 | -56.77755 | 28227 ft | 504 kts | 43° |
| 2026-04-27 08:46 | -34.18163 | -56.74556 | 28549 ft | 506 kts | 43° |
| 2026-04-27 08:46 | -34.15837 | -56.71346 | 28851 ft | 509 kts | 43° |
| 2026-04-27 08:46 | -34.13511 | -56.68110 | 29164 ft | 512 kts | 43° |
| 2026-04-27 08:47 | -34.11185 | -56.64843 | 29485 ft | 514 kts | 44° |
| 2026-04-27 08:47 | -34.08860 | -56.61554 | 29792 ft | 516 kts | 44° |
| 2026-04-27 08:47 | -34.06533 | -56.58252 | 30072 ft | 518 kts | 44° |
| 2026-04-27 08:47 | -34.04192 | -56.54929 | 30323 ft | 520 kts | 43° |
| 2026-04-27 08:48 | -34.01846 | -56.51602 | 30568 ft | 522 kts | 43° |
| 2026-04-27 08:48 | -33.99488 | -56.48264 | 30795 ft | 524 kts | 43° |
| 2026-04-27 08:48 | -33.97122 | -56.44920 | 31024 ft | 526 kts | 43° |
| 2026-04-27 08:48 | -33.94746 | -56.41566 | 31289 ft | 526 kts | 43° |
| 2026-04-27 08:49 | -33.92376 | -56.38221 | 31632 ft | 525 kts | 43° |
| 2026-04-27 08:49 | -33.90005 | -56.34879 | 31957 ft | 524 kts | 43° |
| 2026-04-27 08:49 | -33.87639 | -56.31553 | 32280 ft | 523 kts | 43° |
| 2026-04-27 08:49 | -33.85257 | -56.28247 | 32561 ft | 522 kts | 42° |
| 2026-04-27 08:50 | -33.82874 | -56.24960 | 32849 ft | 522 kts | 42° |
| 2026-04-27 08:50 | -33.80487 | -56.21668 | 33134 ft | 522 kts | 42° |
| 2026-04-27 08:50 | -33.78108 | -56.18376 | 33436 ft | 521 kts | 42° |
| 2026-04-27 08:50 | -33.75743 | -56.15077 | 33721 ft | 521 kts | 43° |
| 2026-04-27 08:51 | -33.73383 | -56.11772 | 33987 ft | 521 kts | 43° |
| 2026-04-27 08:51 | -33.71024 | -56.08465 | 34211 ft | 521 kts | 43° |
| 2026-04-27 08:51 | -33.68665 | -56.05160 | 34437 ft | 521 kts | 43° |
| 2026-04-27 08:51 | -33.66309 | -56.01864 | 34663 ft | 520 kts | 42° |
| 2026-04-27 08:52 | -33.63951 | -55.98571 | 34873 ft | 520 kts | 42° |
| 2026-04-27 08:52 | -33.61594 | -55.95285 | 35083 ft | 520 kts | 42° |
| 2026-04-27 08:52 | -33.59235 | -55.92001 | 35290 ft | 519 kts | 42° |
| 2026-04-27 08:52 | -33.56907 | -55.88764 | 35497 ft | 519 kts | 42° |
| 2026-04-27 08:53 | -33.54548 | -55.85486 | 35695 ft | 519 kts | 42° |
| 2026-04-27 08:53 | -33.52190 | -55.82213 | 35901 ft | 519 kts | 42° |
| 2026-04-27 08:53 | -33.49832 | -55.78943 | 36103 ft | 518 kts | 42° |
| 2026-04-27 08:53 | -33.47469 | -55.75668 | 36242 ft | 517 kts | 41° |
| 2026-04-27 08:54 | -33.45111 | -55.72404 | 36397 ft | 518 kts | 41° |
| 2026-04-27 08:54 | -33.42749 | -55.69138 | 36556 ft | 519 kts | 41° |
| 2026-04-27 08:54 | -33.40386 | -55.65872 | 36756 ft | 518 kts | 40° |
| 2026-04-27 08:54 | -33.38058 | -55.62657 | 36959 ft | 517 kts | 40° |
| 2026-04-27 08:55 | -33.33309 | -55.56114 | 36988 ft | 521 kts | 40° |
| 2026-04-27 08:55 | -33.28595 | -55.49621 | 36991 ft | 518 kts | 40° |
| 2026-04-27 08:56 | -33.23890 | -55.43151 | 36997 ft | 514 kts | 40° |
| 2026-04-27 08:56 | -33.19218 | -55.36743 | 36995 ft | 512 kts | 40° |
| 2026-04-27 08:57 | -33.13001 | -55.28236 | 37013 ft | 510 kts | 40° |
| 2026-04-27 08:58 | -33.08315 | -55.21840 | 36961 ft | 510 kts | 39° |
| 2026-04-27 08:58 | -33.03669 | -55.15507 | 36991 ft | 510 kts | 39° |
| 2026-04-27 08:59 | -32.98982 | -55.09130 | 37012 ft | 512 kts | 39° |
| 2026-04-27 08:59 | -32.94272 | -55.02732 | 37015 ft | 514 kts | 39° |
| 2026-04-27 09:00 | -32.89566 | -54.96350 | 37005 ft | 517 kts | 39° |
| 2026-04-27 09:00 | -32.84804 | -54.89902 | 37017 ft | 519 kts | 38° |
| 2026-04-27 09:01 | -32.80024 | -54.83441 | 37015 ft | 520 kts | 38° |
| 2026-04-27 09:01 | -32.75257 | -54.77009 | 37009 ft | 521 kts | 38° |
| 2026-04-27 09:02 | -32.70458 | -54.70542 | 37005 ft | 521 kts | 38° |
| 2026-04-27 09:02 | -32.65667 | -54.64096 | 37009 ft | 518 kts | 37° |
| 2026-04-27 09:03 | -32.60920 | -54.57727 | 37007 ft | 517 kts | 37° |
| 2026-04-27 09:03 | -32.56143 | -54.51329 | 37015 ft | 517 kts | 37° |
| 2026-04-27 09:04 | -32.51405 | -54.44991 | 37019 ft | 515 kts | 37° |
| 2026-04-27 09:04 | -32.46646 | -54.38638 | 37019 ft | 514 kts | 37° |
| 2026-04-27 09:05 | -32.41888 | -54.32295 | 37022 ft | 513 kts | 37° |
| 2026-04-27 09:05 | -32.37158 | -54.25999 | 37023 ft | 513 kts | 37° |
| 2026-04-27 09:06 | -32.32422 | -54.19690 | 36961 ft | 512 kts | 37° |
| 2026-04-27 09:06 | -32.27761 | -54.13379 | 36990 ft | 511 kts | 37° |
| 2026-04-27 09:07 | -32.23085 | -54.07039 | 37002 ft | 511 kts | 37° |
| 2026-04-27 09:07 | -32.18399 | -54.00711 | 37023 ft | 511 kts | 37° |
| 2026-04-27 09:08 | -32.13706 | -53.94391 | 37032 ft | 511 kts | 36° |
| 2026-04-27 09:08 | -32.09032 | -53.88106 | 37041 ft | 512 kts | 36° |
| 2026-04-27 09:09 | -32.04329 | -53.81794 | 37044 ft | 513 kts | 36° |
| 2026-04-27 09:09 | -31.99598 | -53.75456 | 37040 ft | 514 kts | 36° |
| 2026-04-27 09:10 | -31.94909 | -53.69179 | 37036 ft | 513 kts | 36° |
| 2026-04-27 09:10 | -31.90181 | -53.62860 | 37008 ft | 513 kts | 36° |
| 2026-04-27 09:11 | -31.85456 | -53.56554 | 37042 ft | 512 kts | 36° |
| 2026-04-27 09:11 | -31.80767 | -53.50309 | 37029 ft | 512 kts | 36° |
| 2026-04-27 09:12 | -31.76051 | -53.44038 | 37053 ft | 511 kts | 36° |
| 2026-04-27 09:12 | -31.71334 | -53.37777 | 37049 ft | 511 kts | 35° |
| 2026-04-27 09:13 | -31.66644 | -53.31561 | 37042 ft | 511 kts | 35° |
| 2026-04-27 09:13 | -31.61923 | -53.25315 | 37048 ft | 511 kts | 35° |
| 2026-04-27 09:14 | -31.57201 | -53.19080 | 37052 ft | 510 kts | 34° |
| 2026-04-27 09:14 | -31.52485 | -53.12859 | 37039 ft | 510 kts | 34° |
| 2026-04-27 09:15 | -31.47803 | -53.06692 | 37045 ft | 508 kts | 34° |
| 2026-04-27 09:15 | -31.43090 | -53.00497 | 37021 ft | 509 kts | 34° |
| 2026-04-27 09:16 | -31.38372 | -52.94304 | 37030 ft | 509 kts | 34° |
| 2026-04-27 09:16 | -31.33649 | -52.88115 | 37047 ft | 509 kts | 34° |
| 2026-04-27 09:17 | -31.28950 | -52.81958 | 37049 ft | 510 kts | 34° |
| 2026-04-27 09:17 | -31.24221 | -52.75738 | 37008 ft | 511 kts | 34° |
| 2026-04-27 09:18 | -31.19517 | -52.69582 | 37035 ft | 510 kts | 33° |
| 2026-04-27 09:18 | -31.14775 | -52.63423 | 37038 ft | 510 kts | 33° |
| 2026-04-27 09:19 | -31.10020 | -52.57252 | 37032 ft | 509 kts | 33° |
| 2026-04-27 09:19 | -31.05279 | -52.51102 | 37012 ft | 508 kts | 33° |
| 2026-04-27 09:20 | -31.00586 | -52.45022 | 37035 ft | 508 kts | 33° |
| 2026-04-27 09:20 | -30.95842 | -52.38889 | 37053 ft | 507 kts | 33° |
| 2026-04-27 09:21 | -30.91112 | -52.32780 | 37047 ft | 507 kts | 33° |
| 2026-04-27 09:21 | -30.86396 | -52.26767 | 37013 ft | 504 kts | 31° |
| 2026-04-27 09:22 | -30.81613 | -52.20823 | 37035 ft | 501 kts | 31° |
| 2026-04-27 09:22 | -30.76841 | -52.14897 | 37059 ft | 501 kts | 31° |
| 2026-04-27 09:23 | -30.72111 | -52.09006 | 36991 ft | 501 kts | 31° |
| 2026-04-27 09:23 | -30.67359 | -52.03092 | 37014 ft | 500 kts | 31° |
| 2026-04-27 09:24 | -30.62613 | -51.97196 | 37033 ft | 500 kts | 31° |
| 2026-04-27 09:24 | -30.57857 | -51.91294 | 37048 ft | 500 kts | 31° |
| 2026-04-27 09:25 | -30.53086 | -51.85383 | 37036 ft | 501 kts | 31° |
| 2026-04-27 09:25 | -30.48354 | -51.79519 | 37029 ft | 501 kts | 31° |
| 2026-04-27 09:26 | -30.43594 | -51.73618 | 37039 ft | 502 kts | 32° |
| 2026-04-27 09:26 | -30.38903 | -51.67540 | 37040 ft | 506 kts | 33° |
| 2026-04-27 09:27 | -30.34252 | -51.61411 | 37032 ft | 506 kts | 33° |
| 2026-04-27 09:27 | -30.29625 | -51.55357 | 37014 ft | 503 kts | 33° |
| 2026-04-27 09:28 | -30.24965 | -51.49297 | 37034 ft | 503 kts | 33° |
| 2026-04-27 09:28 | -30.20310 | -51.43261 | 37032 ft | 503 kts | 33° |
| 2026-04-27 09:29 | -30.15678 | -51.37264 | 37026 ft | 503 kts | 33° |
| 2026-04-27 09:29 | -30.11010 | -51.31226 | 36986 ft | 503 kts | 33° |
| 2026-04-27 09:30 | -30.06343 | -51.25197 | 36986 ft | 503 kts | 33° |
| 2026-04-27 09:30 | -30.01670 | -51.19169 | 36999 ft | 503 kts | 33° |
| 2026-04-27 09:31 | -29.97031 | -51.13202 | 36996 ft | 503 kts | 33° |
| 2026-04-27 09:31 | -29.92344 | -51.07199 | 36999 ft | 503 kts | 33° |
| 2026-04-27 09:32 | -29.87644 | -51.01187 | 37004 ft | 504 kts | 33° |
| 2026-04-27 09:32 | -29.82951 | -50.95188 | 37012 ft | 504 kts | 33° |
| 2026-04-27 09:33 | -29.78261 | -50.89200 | 37039 ft | 503 kts | 33° |
| 2026-04-27 09:33 | -29.73592 | -50.83249 | 37030 ft | 503 kts | 33° |
| 2026-04-27 09:34 | -29.68897 | -50.77274 | 37031 ft | 503 kts | 33° |
| 2026-04-27 09:34 | -29.64204 | -50.71311 | 37041 ft | 502 kts | 33° |
| 2026-04-27 09:35 | -29.59512 | -50.65356 | 37042 ft | 502 kts | 33° |
| 2026-04-27 09:35 | -29.54829 | -50.59422 | 37025 ft | 500 kts | 33° |
| 2026-04-27 09:36 | -29.49938 | -50.54048 | 37029 ft | 474 kts | 21° |
| 2026-04-27 09:36 | -29.44659 | -50.49591 | 37020 ft | 470 kts | 20° |
| 2026-04-27 09:37 | -29.39357 | -50.45179 | 37030 ft | 471 kts | 20° |
| 2026-04-27 09:37 | -29.34081 | -50.40708 | 36993 ft | 472 kts | 21° |
| 2026-04-27 09:38 | -29.28809 | -50.36196 | 37022 ft | 473 kts | 21° |
| 2026-04-27 09:38 | -29.23556 | -50.31696 | 37034 ft | 473 kts | 21° |
| 2026-04-27 09:39 | -29.18272 | -50.27180 | 37013 ft | 474 kts | 22° |
| 2026-04-27 09:39 | -29.13012 | -50.22691 | 37020 ft | 474 kts | 21° |
| 2026-04-27 09:40 | -29.07704 | -50.18169 | 36999 ft | 475 kts | 22° |
| 2026-04-27 09:40 | -29.02430 | -50.13634 | 37008 ft | 474 kts | 22° |
| 2026-04-27 09:41 | -28.97121 | -50.09152 | 37023 ft | 474 kts | 22° |
| 2026-04-27 09:41 | -28.94490 | -50.06927 | 36689 ft | 479 kts | 22° |
| 2026-04-27 09:41 | -28.91801 | -50.04657 | 36203 ft | 479 kts | 22° |
| 2026-04-27 09:41 | -28.89129 | -50.02392 | 35644 ft | 478 kts | 22° |
| 2026-04-27 09:42 | -28.86462 | -50.00128 | 35025 ft | 478 kts | 22° |
| 2026-04-27 09:42 | -28.83790 | -49.97864 | 34450 ft | 478 kts | 23° |
| 2026-04-27 09:42 | -28.81113 | -49.95599 | 33761 ft | 480 kts | 24° |
| 2026-04-27 09:42 | -28.78430 | -49.93330 | 33087 ft | 481 kts | 23° |
| 2026-04-27 09:43 | -28.75744 | -49.91034 | 32401 ft | 481 kts | 23° |
| 2026-04-27 09:43 | -28.73025 | -49.88825 | 31769 ft | 482 kts | 24° |
| 2026-04-27 09:43 | -28.70375 | -49.86541 | 31185 ft | 482 kts | 24° |
| 2026-04-27 09:43 | -28.67703 | -49.84254 | 30787 ft | 475 kts | 24° |
| 2026-04-27 09:44 | -28.65098 | -49.81967 | 30366 ft | 471 kts | 25° |
| 2026-04-27 09:44 | -28.62502 | -49.79779 | 29845 ft | 454 kts | 20° |
| 2026-04-27 09:44 | -28.59890 | -49.77747 | 29390 ft | 456 kts | 23° |
| 2026-04-27 09:44 | -28.57363 | -49.75559 | 28880 ft | 453 kts | 25° |
| 2026-04-27 09:45 | -28.54898 | -49.73434 | 28361 ft | 448 kts | 24° |
| 2026-04-27 09:45 | -28.52421 | -49.71323 | 27949 ft | 442 kts | 24° |
| 2026-04-27 09:45 | -28.49956 | -49.69244 | 27465 ft | 440 kts | 24° |
| 2026-04-27 09:45 | -28.47494 | -49.67173 | 26996 ft | 437 kts | 24° |
| 2026-04-27 09:46 | -28.45054 | -49.65125 | 26547 ft | 434 kts | 24° |
| 2026-04-27 09:46 | -28.42631 | -49.63094 | 26094 ft | 431 kts | 24° |
| 2026-04-27 09:46 | -28.40227 | -49.61079 | 25649 ft | 428 kts | 24° |
| 2026-04-27 09:46 | -28.37858 | -49.59102 | 25168 ft | 427 kts | 24° |
| 2026-04-27 09:47 | -28.35471 | -49.57110 | 24732 ft | 424 kts | 24° |
| 2026-04-27 09:47 | -28.33085 | -49.55118 | 24261 ft | 424 kts | 25° |
| 2026-04-27 09:47 | -28.30711 | -49.53137 | 23787 ft | 422 kts | 25° |
| 2026-04-27 09:47 | -28.28346 | -49.51160 | 23276 ft | 422 kts | 26° |
| 2026-04-27 09:48 | -28.26009 | -49.49203 | 22733 ft | 421 kts | 25° |
| 2026-04-27 09:48 | -28.23658 | -49.47258 | 22204 ft | 414 kts | 25° |
| 2026-04-27 09:48 | -28.21332 | -49.45388 | 21898 ft | 406 kts | 25° |
| 2026-04-27 09:48 | -28.19824 | -49.44119 | 21568 ft | 407 kts | 26° |
| 2026-04-27 09:49 | -28.17573 | -49.42147 | 21044 ft | 407 kts | 27° |
| 2026-04-27 09:49 | -28.15305 | -49.40266 | 20609 ft | 400 kts | 25° |
| 2026-04-27 09:49 | -28.12329 | -49.37834 | 20065 ft | 396 kts | 27° |
| 2026-04-27 09:49 | -28.10827 | -49.36586 | 19750 ft | 395 kts | 27° |
| 2026-04-27 09:50 | -28.08650 | -49.34762 | 19335 ft | 393 kts | 27° |
| 2026-04-27 09:50 | -28.06439 | -49.32931 | 18909 ft | 391 kts | 27° |
| 2026-04-27 09:50 | -28.04239 | -49.31126 | 18495 ft | 390 kts | 28° |
| 2026-04-27 09:50 | -28.02033 | -49.29322 | 17987 ft | 390 kts | 28° |
| 2026-04-27 09:51 | -27.99843 | -49.27532 | 17546 ft | 387 kts | 28° |
| 2026-04-27 09:51 | -27.97660 | -49.25752 | 17131 ft | 385 kts | 29° |
| 2026-04-27 09:51 | -27.95493 | -49.23981 | 16680 ft | 383 kts | 29° |
| 2026-04-27 09:51 | -27.93371 | -49.22243 | 16263 ft | 380 kts | 29° |
| 2026-04-27 09:52 | -27.91234 | -49.20494 | 15831 ft | 378 kts | 30° |
| 2026-04-27 09:52 | -27.89108 | -49.18758 | 15415 ft | 375 kts | 30° |
| 2026-04-27 09:52 | -27.87001 | -49.17034 | 15009 ft | 373 kts | 30° |
| 2026-04-27 09:52 | -27.84897 | -49.15317 | 14590 ft | 372 kts | 31° |
| 2026-04-27 09:53 | -27.82812 | -49.13579 | 14177 ft | 372 kts | 33° |
| 2026-04-27 09:53 | -27.80793 | -49.11755 | 13804 ft | 370 kts | 35° |
| 2026-04-27 09:53 | -27.78798 | -49.09900 | 13349 ft | 370 kts | 36° |
| 2026-04-27 09:53 | -27.76838 | -49.08079 | 12873 ft | 368 kts | 36° |
| 2026-04-27 09:54 | -27.74866 | -49.06252 | 12466 ft | 365 kts | 36° |
| 2026-04-27 09:54 | -27.72902 | -49.04442 | 12040 ft | 363 kts | 36° |
| 2026-04-27 09:54 | -27.70949 | -49.02652 | 11647 ft | 360 kts | 36° |
| 2026-04-27 09:54 | -27.69006 | -49.00872 | 11232 ft | 358 kts | 36° |
| 2026-04-27 09:55 | -27.67070 | -48.99109 | 10849 ft | 356 kts | 36° |
| 2026-04-27 09:55 | -27.65339 | -48.97148 | 10670 ft | 351 kts | 55° |
| 2026-04-27 09:55 | -27.64277 | -48.92004 | 10388 ft | 333 kts | 97° |
| 2026-04-27 09:56 | -27.64611 | -48.89494 | 10246 ft | 324 kts | 101° |
| 2026-04-27 09:56 | -27.65002 | -48.87028 | 10103 ft | 315 kts | 102° |
| 2026-04-27 09:56 | -27.65380 | -48.84610 | 9932 ft | 309 kts | 101° |
| 2026-04-27 09:56 | -27.65738 | -48.82217 | 9603 ft | 308 kts | 101° |
| 2026-04-27 09:57 | -27.66084 | -48.79836 | 9335 ft | 305 kts | 101° |
| 2026-04-27 09:57 | -27.66432 | -48.77530 | 9096 ft | 301 kts | 105° |
| 2026-04-27 09:57 | -27.67263 | -48.75402 | 8816 ft | 294 kts | 126° |
| 2026-04-27 09:57 | -27.68366 | -48.73464 | 8483 ft | 293 kts | 125° |
| 2026-04-27 09:58 | -27.69449 | -48.71513 | 8178 ft | 292 kts | 124° |
| 2026-04-27 09:58 | -27.70502 | -48.69583 | 7898 ft | 291 kts | 124° |
| 2026-04-27 09:58 | -27.71571 | -48.67611 | 7599 ft | 291 kts | 124° |
| 2026-04-27 09:58 | -27.72609 | -48.65690 | 7346 ft | 290 kts | 124° |
| 2026-04-27 09:59 | -27.73665 | -48.63739 | 7024 ft | 291 kts | 123° |
| 2026-04-27 09:59 | -27.74716 | -48.61790 | 6732 ft | 290 kts | 123° |
| 2026-04-27 09:59 | -27.75762 | -48.59850 | 6448 ft | 289 kts | 123° |
| 2026-04-27 09:59 | -27.76807 | -48.57910 | 6135 ft | 288 kts | 123° |
| 2026-04-27 10:00 | -27.77851 | -48.55975 | 5833 ft | 287 kts | 123° |
| 2026-04-27 10:00 | -27.78889 | -48.54047 | 5544 ft | 287 kts | 123° |
| 2026-04-27 10:00 | -27.79927 | -48.52121 | 5246 ft | 286 kts | 122° |
| 2026-04-27 10:00 | -27.80944 | -48.50230 | 4967 ft | 283 kts | 122° |
| 2026-04-27 10:01 | -27.81954 | -48.48352 | 4690 ft | 278 kts | 122° |
| 2026-04-27 10:01 | -27.82938 | -48.46503 | 4461 ft | 270 kts | 118° |
| 2026-04-27 10:01 | -27.83412 | -48.44534 | 4394 ft | 253 kts | 88° |
| 2026-04-27 10:01 | -27.83013 | -48.42684 | 4258 ft | 236 kts | 63° |
| 2026-04-27 10:02 | -27.82121 | -48.41212 | 4142 ft | 219 kts | 44° |
| 2026-04-27 10:02 | -27.80948 | -48.40226 | 4038 ft | 201 kts | 30° |
| 2026-04-27 10:02 | -27.79788 | -48.39434 | 3863 ft | 191 kts | 30° |
| 2026-04-27 10:02 | -27.78661 | -48.38668 | 3543 ft | 190 kts | 30° |
| 2026-04-27 10:03 | -27.77507 | -48.37944 | 3208 ft | 189 kts | 17° |
| 2026-04-27 10:03 | -27.76238 | -48.37977 | 2826 ft | 183 kts | 332° |
| 2026-04-27 10:03 | -27.75324 | -48.38901 | 2618 ft | 178 kts | 300° |
| 2026-04-27 10:03 | -27.74667 | -48.40105 | 2439 ft | 183 kts | 300° |
| 2026-04-27 10:04 | -27.73998 | -48.41338 | 2253 ft | 181 kts | 299° |
| 2026-04-27 10:04 | -27.73356 | -48.42522 | 2080 ft | 173 kts | 299° |
| 2026-04-27 10:04 | -27.72749 | -48.43643 | 1916 ft | 162 kts | 299° |
| 2026-04-27 10:04 | -27.72174 | -48.44711 | 1726 ft | 156 kts | 301° |
| 2026-04-27 10:05 | -27.71618 | -48.45742 | 1568 ft | 151 kts | 301° |
| 2026-04-27 10:05 | -27.71076 | -48.46749 | 1353 ft | 151 kts | 301° |
| 2026-04-27 10:05 | -27.70532 | -48.47761 | 1154 ft | 150 kts | 301° |
| 2026-04-27 10:05 | -27.69987 | -48.48773 | 951 ft | 150 kts | 301° |
| 2026-04-27 10:06 | -27.69446 | -48.49778 | 763 ft | 149 kts | 301° |
| 2026-04-27 10:06 | -27.68916 | -48.50775 | 554 ft | 147 kts | 300° |
| 2026-04-27 10:06 | -27.68396 | -48.51761 | 345 ft | 144 kts | 300° |
| 2026-04-27 10:06 | -27.67871 | -48.52708 | 158 ft | 141 kts | 302° |
| 2026-04-27 10:07 | -27.67376 | -48.53645 | 31 ft | 132 kts | 299° |
| 2026-04-27 10:07 | -27.67036 | -48.54258 | 27 ft | 52 kts | 301° |
| 2026-04-27 10:07 | -27.66943 | -48.54432 | 27 ft | 13 kts | 301° |
| 2026-04-27 10:07 | -27.66968 | -48.54514 | 26 ft | 13 kts | 210° |
| 2026-04-27 10:08 | -27.67031 | -48.54559 | 28 ft | 10 kts | 212° |
| 2026-04-27 10:08 | -27.67092 | -48.54601 | 29 ft | 10 kts | 211° |
| 2026-04-27 10:08 | -27.67156 | -48.54623 | 28 ft | 10 kts | 170° |
| 2026-04-27 10:08 | -27.67209 | -48.54580 | 27 ft | 10 kts | 120° |
| 2026-04-27 10:09 | -27.67244 | -48.54517 | 26 ft | 9 kts | 123° |
| 2026-04-27 10:09 | -27.67279 | -48.54456 | 28 ft | 9 kts | 122° |
| 2026-04-27 10:09 | -27.67311 | -48.54396 | 30 ft | 9 kts | 121° |
| 2026-04-27 10:09 | -27.67344 | -48.54338 | 26 ft | 8 kts | 122° |
| 2026-04-27 10:10 | -27.67375 | -48.54320 | 27 ft | 5 kts | 194° |
| 2026-04-27 10:10 | -27.67400 | -48.54335 | 26 ft | 2 kts | 209° |
| 2026-04-27 10:10 | -27.67402 | -48.54336 | 26 ft | 0 kts | 209° |